Jeffersontown, Kentucky
Current Conditions -  °F | °C
As of 11:02 AM on Monday 24 Nov 2014 (Local Time) from KLOU Reporting Station
Overcast Overcast  
Wind Chill: 50°   Ceiling: 2600
Heat Index: 50°   Visibility: 10mi
Dew Point: 43°   Wind: 26mph
Humidity: 77%   Direction: 260°W
Pressure: 29.6"   Gusts: 35mph
Location:  38.19°N, 85.57°W
Report Text: KLOU 241602Z 26023G30KT 10SM SCT019 BKN026 OVC044 10/06 A2960 RMK AO2 PK WND 25030/1600 PRESRR T01000061
Loading
Personal Weather Stations






























Interactive Weather Map New forecast layout! Learn more

10-Day Weather Forecast

Advertisements
Track Severe Weather on mobile